createdAt,value
2022-08-23T00:02:31.963Z,15.30
2022-08-23T00:05:08.888Z,11.10
2022-08-23T00:07:45.233Z,13.80
2022-08-23T00:10:19.371Z,11.80
2022-08-23T00:12:51.640Z,8.50
2022-08-23T00:15:23.993Z,12.60
2022-08-23T00:17:56.533Z,21.40
2022-08-23T00:20:28.858Z,17.40
2022-08-23T00:23:01.143Z,15.70
2022-08-23T00:25:33.348Z,21.20
2022-08-23T00:28:11.444Z,13.10
2022-08-23T00:30:47.296Z,16.20
2022-08-23T00:33:19.498Z,13.90
2022-08-23T00:35:51.698Z,23.60
2022-08-23T00:38:34.036Z,11.60
2022-08-23T00:41:07.540Z,12.20
2022-08-23T00:44:00.932Z,9.90
2022-08-23T00:47:01.819Z,22.10
2022-08-23T00:49:37.234Z,9.50
2022-08-23T00:54:44.427Z,8.90
2022-08-23T00:57:19.880Z,17.10
2022-08-23T00:59:52.094Z,13.20
2022-08-23T01:02:24.939Z,12.90
2022-08-23T01:04:59.638Z,17.10
2022-08-23T01:07:42.263Z,12.40
2022-08-23T01:10:22.382Z,13.90
2022-08-23T01:13:03.419Z,13.80
2022-08-23T01:15:40.084Z,12.40
2022-08-23T01:18:16.427Z,9.80
2022-08-23T01:21:03.002Z,12.60
2022-08-23T01:23:42.032Z,11.70
2022-08-23T01:26:22.054Z,17.20
2022-08-23T01:28:55.725Z,10.70
2022-08-23T01:31:28.207Z,14.20
2022-08-23T01:34:06.787Z,15.10
2022-08-23T01:36:39.700Z,16.10
2022-08-23T01:39:12.551Z,21.90
2022-08-23T01:41:45.071Z,8.70
2022-08-23T01:44:17.664Z,10.10
2022-08-23T01:46:50.690Z,11.20
2022-08-23T01:49:30.175Z,11.80
2022-08-23T01:52:02.512Z,18.30
2022-08-23T01:54:34.695Z,10.60
2022-08-23T01:57:08.897Z,15.80
2022-08-23T01:59:41.433Z,14.30
2022-08-23T02:02:15.215Z,12.40
2022-08-23T02:04:47.419Z,14.50
2022-08-23T02:07:20.900Z,13.40
2022-08-23T02:09:53.067Z,9.20
2022-08-23T02:12:25.512Z,9.80
2022-08-23T02:14:57.677Z,16.30
2022-08-23T02:17:29.904Z,10.30
2022-08-23T02:20:04.491Z,12.60
2022-08-23T02:22:37.770Z,13.10
2022-08-23T02:25:11.496Z,11.70
2022-08-23T02:27:44.290Z,14.80
2022-08-23T02:30:17.041Z,19.30
2022-08-23T02:32:49.200Z,13.60
2022-08-23T02:35:24.530Z,12.20
2022-08-23T02:37:56.685Z,12.10
2022-08-23T02:40:28.894Z,14.50
2022-08-23T02:43:01.225Z,12.00
2022-08-23T02:45:33.607Z,13.90
2022-08-23T02:48:06.491Z,12.40
2022-08-23T02:50:39.143Z,12.90
2022-08-23T02:53:11.373Z,12.80
2022-08-23T02:55:45.627Z,9.70
2022-08-23T02:58:17.911Z,7.90
2022-08-23T03:00:51.920Z,15.30
2022-08-23T03:03:24.355Z,9.90
2022-08-23T03:05:57.176Z,13.60
2022-08-23T03:08:49.647Z,15.40
2022-08-23T03:11:23.466Z,25.40
2022-08-23T03:13:57.646Z,10.20
2022-08-23T03:16:30.318Z,10.50
2022-08-23T03:19:03.031Z,9.90
2022-08-23T03:21:35.499Z,9.90
2022-08-23T03:24:10.356Z,7.90
2022-08-23T03:26:45.911Z,11.60
2022-08-23T03:29:18.993Z,10.60
2022-08-23T03:31:51.788Z,9.70
2022-08-23T03:34:26.679Z,15.10
2022-08-23T03:36:59.103Z,11.80
2022-08-23T03:39:31.667Z,12.70
2022-08-23T03:42:03.928Z,18.10
2022-08-23T03:44:36.176Z,8.40
2022-08-23T03:47:08.942Z,11.40
2022-08-23T03:49:41.562Z,11.90
2022-08-23T03:52:14.097Z,12.90
2022-08-23T03:54:46.239Z,11.90
2022-08-23T03:57:18.376Z,14.80
2022-08-23T03:59:50.668Z,12.20
2022-08-23T04:02:22.887Z,14.90
2022-08-23T04:04:55.076Z,12.20
2022-08-23T04:07:27.716Z,10.70
2022-08-23T04:09:59.900Z,13.30
2022-08-23T04:12:32.089Z,17.60
2022-08-23T04:15:05.363Z,9.80
2022-08-23T04:17:37.659Z,15.60
2022-08-23T04:20:11.572Z,11.10
2022-08-23T04:22:45.930Z,14.50
2022-08-23T04:25:34.996Z,24.90
2022-08-23T04:28:08.011Z,13.10
2022-08-23T04:30:40.146Z,13.80
2022-08-23T04:33:17.882Z,11.90
2022-08-23T04:35:50.519Z,9.10
2022-08-23T04:38:24.457Z,11.90
2022-08-23T04:41:16.123Z,9.00
2022-08-23T04:43:48.839Z,13.50
2022-08-23T04:46:21.102Z,8.70
2022-08-23T04:48:54.254Z,17.20
2022-08-23T04:51:26.432Z,9.50
2022-08-23T04:53:58.664Z,9.30
2022-08-23T04:56:31.258Z,10.50
2022-08-23T04:59:03.552Z,10.10
2022-08-23T05:01:36.283Z,8.50
2022-08-23T05:04:09.208Z,12.30
2022-08-23T05:06:41.392Z,17.00
2022-08-23T05:09:17.235Z,5.10
2022-08-23T05:11:52.674Z,13.50
2022-08-23T05:14:24.813Z,22.00
2022-08-23T05:16:57.524Z,13.10
2022-08-23T05:19:29.768Z,11.40
2022-08-23T05:22:01.971Z,10.70
2022-08-23T05:24:34.264Z,26.10
2022-08-23T05:27:08.684Z,13.30
2022-08-23T05:29:44.011Z,11.30
2022-08-23T05:32:16.159Z,8.70
2022-08-23T05:34:48.577Z,6.20
2022-08-23T05:37:20.844Z,15.10
2022-08-23T05:39:53.208Z,14.30
2022-08-23T05:42:25.839Z,9.40
2022-08-23T05:44:58.087Z,16.10
2022-08-23T05:47:33.787Z,12.30
2022-08-23T05:50:07.409Z,22.30
2022-08-23T05:52:39.800Z,21.50
2022-08-23T05:55:12.371Z,7.80
2022-08-23T05:57:44.630Z,15.40
2022-08-23T06:00:17.202Z,15.50
2022-08-23T06:02:50.498Z,12.10
2022-08-23T06:05:22.707Z,12.10
2022-08-23T06:07:56.719Z,12.70
2022-08-23T06:10:28.912Z,12.10
2022-08-23T06:13:02.990Z,11.00
2022-08-23T06:15:35.187Z,22.60
2022-08-23T06:18:07.399Z,11.10
2022-08-23T06:20:39.684Z,13.80
2022-08-23T06:23:12.235Z,14.80
2022-08-23T06:25:44.476Z,15.70
2022-08-23T06:28:16.680Z,21.00
2022-08-23T06:30:48.915Z,12.40
2022-08-23T06:33:21.744Z,13.60
2022-08-23T06:36:06.340Z,18.50
2022-08-23T06:38:38.904Z,15.10
2022-08-23T06:41:13.947Z,17.00
2022-08-23T06:43:48.819Z,14.20
2022-08-23T06:48:56.315Z,17.90
2022-08-23T06:51:31.768Z,21.20
2022-08-23T06:54:07.159Z,14.20
2022-08-23T06:56:40.671Z,17.10
2022-08-23T06:59:13.556Z,15.30
2022-08-23T07:01:48.296Z,18.90
2022-08-23T07:04:23.324Z,15.00
2022-08-23T07:06:55.756Z,20.20
2022-08-23T07:09:28.334Z,14.20
2022-08-23T07:12:01.659Z,10.70
2022-08-23T07:14:33.956Z,23.60
2022-08-23T07:17:06.680Z,18.20
2022-08-23T07:19:39.311Z,18.90
2022-08-23T07:22:12.124Z,15.10
2022-08-23T07:24:44.650Z,22.00
2022-08-23T07:27:16.881Z,18.50
2022-08-23T07:29:49.275Z,24.70
2022-08-23T07:32:21.453Z,22.90
2022-08-23T07:34:53.697Z,15.30
2022-08-23T07:37:26.461Z,21.60
2022-08-23T07:39:59.129Z,19.60
2022-08-23T07:42:31.404Z,17.20
2022-08-23T07:45:04.168Z,17.30
2022-08-23T07:47:36.792Z,14.50
2022-08-23T07:50:10.667Z,23.10
2022-08-23T07:52:42.963Z,28.80
2022-08-23T07:55:15.277Z,16.30
2022-08-23T07:57:47.428Z,20.30
2022-08-23T08:00:20.138Z,17.00
2022-08-23T08:02:52.643Z,22.30
2022-08-23T08:05:27.360Z,17.70
2022-08-23T08:07:59.719Z,21.40
2022-08-23T08:10:32.311Z,18.80
2022-08-23T08:13:04.506Z,16.30
2022-08-23T08:15:37.107Z,22.10
2022-08-23T08:18:09.327Z,14.00
2022-08-23T08:20:46.090Z,22.90
2022-08-23T08:23:18.312Z,16.40
2022-08-23T08:25:50.517Z,18.40
2022-08-23T08:28:23.901Z,15.60
2022-08-23T08:30:56.192Z,20.40
2022-08-23T08:33:30.864Z,24.20
2022-08-23T08:36:03.741Z,18.50
2022-08-23T08:38:48.267Z,27.40
2022-08-23T08:41:37.740Z,21.90
2022-08-23T08:44:21.304Z,22.40
2022-08-23T08:46:57.918Z,25.70
2022-08-23T08:49:38.069Z,19.80
2022-08-23T08:52:16.304Z,21.00
2022-08-23T08:54:53.268Z,24.80
2022-08-23T08:57:27.883Z,14.00
2022-08-23T09:00:04.273Z,20.00
2022-08-23T09:02:38.939Z,17.80
2022-08-23T09:05:15.892Z,16.90
2022-08-23T09:07:59.472Z,22.20
2022-08-23T09:10:54.259Z,24.20
2022-08-23T09:13:53.713Z,14.00
2022-08-23T09:16:41.223Z,29.80
2022-08-23T09:19:13.728Z,14.30
2022-08-23T09:21:49.629Z,26.20
2022-08-23T09:24:22.251Z,19.20
2022-08-23T09:26:55.031Z,22.80
2022-08-23T09:29:30.034Z,17.90
2022-08-23T09:32:03.612Z,10.30
2022-08-23T09:34:43.840Z,21.90
2022-08-23T09:37:20.743Z,25.70
2022-08-23T09:39:55.824Z,13.90
2022-08-23T09:42:36.004Z,12.70
2022-08-23T09:45:26.556Z,19.20
2022-08-23T09:47:58.985Z,18.60
2022-08-23T09:50:35.514Z,23.40
2022-08-23T09:53:11.132Z,19.60
2022-08-23T09:55:48.235Z,14.40
2022-08-23T09:58:27.551Z,19.70
2022-08-23T10:01:19.605Z,20.50
2022-08-23T10:04:10.691Z,26.20
2022-08-23T10:06:46.167Z,14.50
2022-08-23T10:09:28.708Z,14.00
2022-08-23T10:12:02.981Z,21.20
2022-08-23T10:14:35.347Z,16.90
2022-08-23T10:17:19.745Z,16.20
2022-08-23T10:20:00.118Z,18.60
2022-08-23T10:22:42.086Z,27.20
2022-08-23T10:25:20.016Z,13.90
2022-08-23T10:28:21.867Z,12.90
2022-08-23T10:31:01.504Z,21.60
2022-08-23T10:33:43.471Z,24.00
2022-08-23T10:36:22.404Z,25.70
2022-08-23T10:39:00.808Z,19.10
2022-08-23T10:41:51.723Z,18.90
2022-08-23T10:44:33.304Z,18.20
2022-08-23T10:47:16.745Z,24.80
2022-08-23T10:49:53.551Z,26.70
2022-08-23T10:52:31.125Z,23.90
2022-08-23T10:55:17.535Z,14.50
2022-08-23T10:57:53.378Z,15.20
2022-08-23T11:00:29.319Z,19.20
2022-08-23T11:03:19.190Z,24.40
2022-08-23T11:06:42.169Z,25.20
2022-08-23T11:09:32.805Z,21.00
2022-08-23T11:12:20.215Z,12.40
2022-08-23T11:15:05.153Z,19.70
2022-08-23T11:17:53.917Z,22.40
2022-08-23T11:21:01.226Z,18.50
2022-08-23T11:23:43.564Z,15.20
2022-08-23T11:26:53.344Z,16.30
2022-08-23T11:29:34.761Z,20.00
2022-08-23T11:32:26.931Z,23.20
2022-08-23T11:35:10.261Z,22.10
2022-08-23T11:38:03.833Z,14.70
2022-08-23T11:41:12.779Z,20.20
2022-08-23T11:43:47.803Z,30.80
2022-08-23T11:46:37.386Z,24.70
2022-08-23T11:49:32.184Z,24.10
2022-08-23T11:52:17.335Z,26.10
2022-08-23T11:55:08.612Z,16.10
2022-08-23T11:57:57.923Z,20.40
2022-08-23T12:00:51.347Z,21.90
2022-08-23T12:03:34.113Z,22.00
2022-08-23T12:06:31.878Z,33.30
2022-08-23T12:09:12.411Z,19.70
2022-08-23T12:12:27.727Z,19.90
2022-08-23T12:15:02.412Z,23.90
2022-08-23T12:18:11.648Z,19.00
2022-08-23T12:20:48.448Z,23.00
2022-08-23T12:23:23.147Z,17.00
2022-08-23T12:26:14.038Z,19.00
2022-08-23T12:28:50.963Z,23.00
2022-08-23T12:31:34.248Z,21.90
2022-08-23T12:34:25.774Z,18.80
2022-08-23T12:37:09.578Z,22.20
2022-08-23T12:39:50.414Z,20.60
2022-08-23T12:42:29.382Z,13.60
2022-08-23T12:45:09.919Z,26.90
2022-08-23T12:47:43.514Z,24.40
2022-08-23T12:50:32.846Z,27.20
2022-08-23T12:53:09.917Z,39.10
2022-08-23T12:55:45.279Z,18.40
2022-08-23T13:00:58.320Z,13.50
2022-08-23T13:03:35.973Z,23.20
2022-08-23T13:06:11.843Z,18.80
2022-08-23T13:08:49.255Z,17.70
2022-08-23T13:11:26.248Z,22.20
2022-08-23T13:13:58.699Z,19.50
2022-08-23T13:16:43.865Z,26.50
2022-08-23T13:19:31.841Z,23.70
2022-08-23T13:22:22.266Z,18.40
2022-08-23T13:28:03.059Z,14.40
2022-08-23T13:30:37.354Z,19.00
2022-08-23T13:33:25.579Z,20.20
2022-08-23T13:36:13.247Z,23.70
2022-08-23T13:38:47.066Z,17.90
2022-08-23T13:41:38.414Z,23.50
2022-08-23T13:44:15.623Z,27.70
2022-08-23T13:46:51.314Z,19.10
2022-08-23T13:49:28.718Z,19.30
2022-08-23T13:52:41.609Z,25.50
2022-08-23T13:55:03.255Z,18.90
2022-08-23T13:57:37.336Z,19.40
2022-08-23T14:00:15.335Z,15.70
2022-08-23T14:02:51.020Z,15.90
2022-08-23T14:05:25.151Z,13.60
2022-08-23T14:07:57.478Z,19.00
2022-08-23T14:10:30.176Z,13.10
2022-08-23T14:13:03.098Z,13.50
2022-08-23T14:18:28.280Z,10.90
2022-08-23T14:21:02.003Z,18.30
2022-08-23T14:23:34.224Z,26.30
2022-08-23T14:26:06.827Z,28.50
2022-08-23T14:28:44.290Z,20.40
2022-08-23T14:31:16.790Z,22.40
2022-08-23T14:33:49.555Z,18.40
2022-08-23T14:36:22.037Z,19.10
2022-08-23T14:38:57.445Z,15.20
2022-08-23T14:41:31.856Z,14.50
2022-08-23T14:44:05.144Z,20.20
2022-08-23T14:46:37.356Z,18.80
2022-08-23T14:49:09.626Z,20.90
2022-08-23T14:51:46.318Z,28.20
2022-08-23T14:54:23.031Z,19.80
2022-08-23T14:56:55.727Z,17.40
2022-08-23T14:59:27.979Z,11.30
2022-08-23T15:02:01.001Z,12.80
2022-08-23T15:04:34.301Z,15.70
2022-08-23T15:07:18.275Z,15.70
2022-08-23T15:09:55.907Z,21.50
2022-08-23T15:15:22.345Z,18.10
2022-08-23T15:17:58.008Z,10.10
2022-08-23T15:20:34.443Z,22.30
2022-08-23T15:23:08.015Z,21.10
2022-08-23T15:25:42.300Z,23.50
2022-08-23T15:28:16.865Z,18.60
2022-08-23T15:30:50.604Z,19.20
2022-08-23T15:33:27.004Z,13.00
2022-08-23T15:36:03.650Z,26.20
2022-08-23T15:38:36.797Z,16.30
2022-08-23T15:41:09.596Z,12.90
2022-08-23T15:43:43.119Z,18.60
2022-08-23T15:46:21.642Z,25.80
2022-08-23T15:48:58.940Z,13.40
2022-08-23T15:51:31.380Z,18.50
2022-08-23T15:54:04.096Z,21.50
2022-08-23T15:56:41.353Z,20.20
2022-08-23T15:59:17.626Z,23.60
2022-08-23T16:01:49.920Z,18.20
2022-08-23T16:04:22.127Z,23.30
2022-08-23T16:06:54.294Z,21.70
2022-08-23T16:09:28.162Z,14.90
2022-08-23T16:12:00.662Z,15.80
2022-08-23T16:14:33.152Z,22.10
2022-08-23T16:17:06.100Z,28.00
2022-08-23T16:19:38.425Z,27.40
2022-08-23T16:22:10.650Z,24.60
2022-08-23T16:24:42.990Z,20.10
2022-08-23T16:27:15.242Z,25.40
2022-08-23T16:29:47.389Z,32.20
2022-08-23T16:32:19.593Z,27.80
2022-08-23T16:34:51.944Z,33.60
2022-08-23T16:37:24.195Z,23.10
2022-08-23T16:39:56.487Z,20.60
2022-08-23T16:42:28.676Z,22.30
2022-08-23T16:45:01.029Z,30.30
2022-08-23T16:47:34.947Z,20.10
2022-08-23T16:50:08.267Z,21.10
2022-08-23T16:52:40.496Z,13.90
2022-08-23T16:55:14.586Z,19.40
2022-08-23T16:57:46.804Z,15.10
2022-08-23T17:00:19.893Z,20.20
2022-08-23T17:02:52.114Z,19.70
2022-08-23T17:05:25.022Z,18.90
2022-08-23T17:07:57.308Z,17.20
2022-08-23T17:10:30.840Z,7.80
2022-08-23T17:13:03.670Z,19.00
2022-08-23T17:15:38.051Z,22.30
2022-08-23T17:18:10.735Z,10.10
2022-08-23T17:20:43.829Z,7.10
2022-08-23T17:23:16.147Z,6.90
2022-08-23T17:25:50.555Z,4.80
2022-08-23T17:28:22.928Z,9.60
2022-08-23T17:30:55.485Z,6.50
2022-08-23T17:33:28.654Z,6.40
2022-08-23T17:36:00.824Z,7.90
2022-08-23T17:38:33.160Z,8.60
2022-08-23T17:41:05.319Z,4.70
2022-08-23T17:43:37.576Z,6.90
2022-08-23T17:46:10.054Z,6.10
2022-08-23T17:48:42.420Z,4.20
2022-08-23T17:51:14.577Z,7.50
2022-08-23T17:53:47.556Z,4.10
2022-08-23T17:56:19.762Z,2.40
2022-08-23T17:58:52.979Z,10.50
2022-08-23T18:01:25.366Z,5.30
2022-08-23T18:03:57.931Z,6.50
2022-08-23T18:06:30.125Z,2.50
2022-08-23T18:09:03.506Z,7.00
2022-08-23T18:11:36.579Z,5.70
2022-08-23T18:14:09.467Z,4.50
2022-08-23T18:16:44.099Z,6.10
2022-08-23T18:19:18.516Z,7.50
2022-08-23T18:21:50.864Z,4.60
2022-08-23T18:24:23.204Z,13.70
2022-08-23T18:27:13.080Z,9.30
2022-08-23T18:29:45.644Z,16.90
2022-08-23T18:32:23.811Z,7.50
2022-08-23T18:34:56.153Z,4.40
2022-08-23T18:37:28.439Z,4.00
2022-08-23T18:40:00.996Z,4.70
2022-08-23T18:42:33.259Z,5.90
2022-08-23T18:45:05.907Z,2.10
2022-08-23T18:47:39.080Z,2.40
2022-08-23T18:50:14.548Z,4.30
2022-08-23T18:52:46.782Z,3.10
2022-08-23T18:55:20.341Z,3.00
2022-08-23T18:57:52.484Z,6.40
2022-08-23T19:00:24.672Z,5.80
2022-08-23T19:02:57.447Z,4.00
2022-08-23T19:05:41.682Z,3.70
2022-08-23T19:08:15.879Z,2.90
2022-08-23T19:10:48.769Z,3.70
2022-08-23T19:13:20.990Z,4.70
2022-08-23T19:15:53.529Z,6.40
2022-08-23T19:18:25.782Z,3.80
2022-08-23T19:20:57.968Z,4.90
2022-08-23T19:23:30.217Z,5.80
2022-08-23T19:26:03.575Z,4.00
2022-08-23T19:28:38.627Z,2.80
2022-08-23T19:31:11.654Z,3.10
2022-08-23T19:33:44.347Z,5.10
2022-08-23T19:36:42.769Z,3.70
2022-08-23T19:39:09.864Z,10.80
2022-08-23T19:41:42.379Z,6.40
2022-08-23T19:44:15.131Z,10.80
2022-08-23T19:46:50.067Z,6.80
2022-08-23T19:49:23.048Z,9.00
2022-08-23T19:51:55.441Z,5.10
2022-08-23T19:54:28.399Z,8.90
2022-08-23T19:57:02.091Z,4.00
2022-08-23T19:59:36.679Z,9.30
2022-08-23T20:02:09.900Z,4.80
2022-08-23T20:04:42.271Z,10.20
2022-08-23T20:07:14.397Z,4.90
2022-08-23T20:09:47.205Z,7.60
2022-08-23T20:12:19.443Z,7.70
2022-08-23T20:14:51.629Z,8.80
2022-08-23T20:17:24.145Z,5.50
2022-08-23T20:19:56.786Z,10.20
2022-08-23T20:22:54.732Z,8.20
2022-08-23T20:25:27.687Z,8.70
2022-08-23T20:27:59.991Z,11.20
2022-08-23T20:30:32.188Z,8.30
2022-08-23T20:33:05.079Z,6.70
2022-08-23T20:35:37.270Z,4.40
2022-08-23T20:38:09.491Z,5.50
2022-08-23T20:41:01.679Z,6.00
2022-08-23T20:43:39.203Z,10.40
2022-08-23T20:46:11.835Z,5.20
2022-08-23T20:48:44.141Z,7.00
2022-08-23T20:51:16.375Z,7.20
2022-08-23T20:53:48.608Z,5.20
2022-08-23T20:56:21.651Z,5.50
2022-08-23T20:58:54.339Z,6.40
2022-08-23T21:01:26.603Z,14.80
2022-08-23T21:03:58.795Z,4.60
2022-08-23T21:06:38.741Z,7.50
2022-08-23T21:09:12.401Z,6.10
2022-08-23T21:11:45.390Z,8.40
2022-08-23T21:14:20.744Z,5.60
2022-08-23T21:16:53.225Z,6.30
2022-08-23T21:19:25.700Z,8.40
2022-08-23T21:21:58.613Z,7.40
2022-08-23T21:24:32.402Z,7.80
2022-08-23T21:27:09.585Z,8.20
2022-08-23T21:29:42.297Z,6.20
2022-08-23T21:32:14.479Z,8.50
2022-08-23T21:34:46.993Z,7.30
2022-08-23T21:37:19.215Z,5.90
2022-08-23T21:39:52.708Z,9.80
2022-08-23T21:42:26.228Z,3.40
2022-08-23T21:44:58.415Z,5.60
2022-08-23T21:47:30.528Z,7.30
2022-08-23T21:50:02.692Z,5.00
2022-08-23T21:52:34.900Z,3.90
2022-08-23T21:55:08.767Z,4.00
2022-08-23T21:57:41.404Z,3.20
2022-08-23T22:00:17.462Z,3.00
2022-08-23T22:02:49.634Z,4.60
2022-08-23T22:05:21.931Z,19.50
2022-08-23T22:07:54.259Z,13.50
2022-08-23T22:10:27.704Z,3.70
2022-08-23T22:13:01.675Z,3.80
2022-08-23T22:15:33.981Z,4.50
2022-08-23T22:18:06.918Z,5.10
2022-08-23T22:20:39.203Z,1.80
2022-08-23T22:23:11.693Z,4.60
2022-08-23T22:25:43.885Z,5.30
2022-08-23T22:28:16.064Z,4.30
2022-08-23T22:30:48.366Z,5.80
2022-08-23T22:33:20.620Z,6.60
2022-08-23T22:35:52.793Z,5.20
2022-08-23T22:38:25.749Z,5.10
2022-08-23T22:40:58.411Z,3.70
2022-08-23T22:43:30.798Z,2.30
2022-08-23T22:46:05.015Z,2.30
2022-08-23T22:48:37.388Z,4.10
2022-08-23T22:51:12.784Z,8.90
2022-08-23T22:53:47.645Z,8.50
2022-08-23T22:56:23.103Z,5.10
2022-08-23T22:58:55.491Z,3.30
2022-08-23T23:01:29.657Z,4.80
2022-08-23T23:04:03.657Z,3.00
2022-08-23T23:06:36.279Z,6.90
2022-08-23T23:09:09.845Z,2.20
2022-08-23T23:11:42.742Z,4.70
2022-08-23T23:14:16.529Z,5.80
2022-08-23T23:16:50.231Z,7.60
2022-08-23T23:19:40.780Z,6.80
2022-08-23T23:22:12.984Z,9.20
2022-08-23T23:24:45.125Z,5.80
2022-08-23T23:27:17.294Z,5.20
2022-08-23T23:29:49.534Z,3.20
2022-08-23T23:32:22.021Z,6.80
2022-08-23T23:34:54.342Z,5.90
2022-08-23T23:37:30.468Z,4.10
2022-08-23T23:40:02.875Z,7.40
2022-08-23T23:42:35.119Z,11.30
2022-08-23T23:45:09.049Z,8.20
2022-08-23T23:47:42.633Z,5.60
2022-08-23T23:50:16.907Z,4.20
2022-08-23T23:52:49.167Z,3.70
2022-08-23T23:55:23.135Z,2.70
2022-08-23T23:57:56.899Z,5.40
